Time;durP1;ratioP1;P1;durP2;ratioP2;P2;SDS_P1;SDS_P2;PMS_P1;PMS_P2;Temp;Humidity;BMP_temperature;BMP_pressure;BME280_temperature;BME280_humidity;BME280_pressure;Samples;Min_cycle;Max_cycle;Signal;HPM_P1;HPM_P2
2023/04/07 00:00:42;;;;;;;;;53.00;42.50;;;;;2.61;62.27;99197.03;5052152;28;8978;-75
2023/04/07 00:03:22;;;;;;;;;48.00;43.00;;;;;2.84;61.55;99200.63;5045197;28;8846;-76
2023/04/07 00:05:51;;;;;;;;;41.00;38.50;;;;;2.66;61.90;99188.44;5045064;28;8861;-75
2023/04/07 00:08:20;;;;;;;;;48.00;40.75;;;;;2.51;61.89;99184.03;5013073;28;8911;-76
2023/04/07 00:10:49;;;;;;;;;43.75;39.50;;;;;2.89;60.80;99180.75;5045010;28;8830;-76
2023/04/07 00:13:18;;;;;;;;;41.50;40.25;;;;;2.86;60.68;99184.19;5044810;28;8862;-79
2023/04/07 00:15:46;;;;;;;;;45.25;40.75;;;;;3.17;60.17;99174.81;5061627;28;9588;-75
2023/04/07 00:18:15;;;;;;;;;49.00;42.00;;;;;3.45;60.31;99176.63;5029094;28;8966;-79
2023/04/07 00:20:46;;;;;;;;;47.75;41.00;;;;;3.65;59.66;99168.88;5065230;28;8829;-78
2023/04/07 00:23:14;;;;;;;;;46.25;39.00;;;;;3.82;58.89;99168.88;5065441;28;8884;-75
2023/04/07 00:25:43;;;;;;;;;47.25;41.00;;;;;3.64;59.20;99169.72;5048764;28;8876;-75
2023/04/07 00:28:12;;;;;;;;;45.00;40.00;;;;;3.86;58.98;99166.28;5071354;28;8881;-78
2023/04/07 00:30:41;;;;;;;;;53.50;44.50;;;;;4.11;58.49;99166.25;5086762;28;8865;-75
2023/04/07 00:33:09;;;;;;;;;45.25;40.00;;;;;4.21;57.71;99168.00;5086217;28;8854;-79
2023/04/07 00:35:38;;;;;;;;;47.00;41.50;;;;;4.33;57.82;99156.72;5071339;28;8865;-74
2023/04/07 00:38:08;;;;;;;;;39.50;36.25;;;;;4.42;57.51;99161.03;5071162;28;8923;-75
2023/04/07 00:40:38;;;;;;;;;32.75;28.00;;;;;4.52;56.98;99163.59;5074950;28;8851;-77
2023/04/07 00:43:06;;;;;;;;;41.25;34.50;;;;;4.51;56.67;99161.03;5073029;28;8910;-75
2023/04/07 00:45:36;;;;;;;;;47.00;41.75;;;;;4.59;56.51;99158.41;5091224;28;9656;-75
2023/04/07 00:48:06;;;;;;;;;48.25;42.25;;;;;4.68;56.76;99158.38;5106977;28;8865;-77
2023/04/07 00:50:35;;;;;;;;;51.75;43.25;;;;;4.64;55.92;99152.31;5088746;28;9566;-74
2023/04/07 00:53:04;;;;;;;;;42.75;41.50;;;;;4.73;55.81;99149.66;5069304;28;8885;-77
2023/04/07 00:55:34;;;;;;;;;41.50;36.00;;;;;4.83;55.62;99155.72;5045782;28;8855;-78
2023/04/07 00:58:04;;;;;;;;;45.25;40.75;;;;;4.86;55.38;99149.59;5072929;28;8855;-75
2023/04/07 01:00:38;;;;;;;;;42.75;37.50;;;;;4.96;55.30;99148.69;5106041;28;8874;-76
2023/04/07 01:03:13;;;;;;;;;45.50;42.25;;;;;5.00;55.14;99144.34;5089866;28;8990;-76
2023/04/07 01:05:51;;;;;;;;;44.50;39.00;;;;;5.03;54.97;99137.38;5057622;28;8874;-77
2023/04/07 01:08:24;;;;;;;;;47.50;41.50;;;;;4.94;54.70;99135.69;4997547;28;8850;-75
2023/04/07 01:11:02;;;;;;;;;42.50;38.75;;;;;4.61;54.70;99141.88;5044854;28;8927;-76
2023/04/07 01:13:36;;;;;;;;;50.00;42.75;;;;;4.70;54.89;99141.00;5031899;28;8856;-75
2023/04/07 01:16:17;;;;;;;;;44.25;39.50;;;;;4.65;54.96;99140.16;5031952;28;8851;-76
2023/04/07 01:18:54;;;;;;;;;50.50;42.75;;;;;4.71;54.46;99133.16;5031832;28;8901;-75
2023/04/07 01:21:27;;;;;;;;;51.00;42.25;;;;;4.63;55.32;99137.53;5031612;28;8835;-77
2023/04/07 01:24:17;;;;;;;;;48.00;41.75;;;;;4.77;55.26;99132.28;5019599;28;8850;-75
2023/04/07 01:26:49;;;;;;;;;33.50;33.50;;;;;4.70;55.42;99130.59;5010900;28;8842;-78
2023/04/07 01:29:30;;;;;;;;;51.25;44.75;;;;;4.79;54.79;99132.28;4998567;28;8863;-76
2023/04/07 01:32:02;;;;;;;;;48.25;44.00;;;;;4.73;54.63;99131.44;5026505;28;8842;-78
2023/04/07 01:34:32;;;;;;;;;51.50;43.75;;;;;4.53;54.22;99143.66;5048177;28;8890;-75
2023/04/07 01:37:02;;;;;;;;;47.00;40.25;;;;;4.57;54.63;99125.41;5032181;28;8836;-78
2023/04/07 01:39:33;;;;;;;;;47.75;43.75;;;;;4.57;55.15;99130.63;5040416;28;8974;-76
2023/04/07 01:42:05;;;;;;;;;53.50;44.75;;;;;4.38;54.76;99134.16;5032183;28;9620;-76
2023/04/07 01:44:36;;;;;;;;;50.25;44.75;;;;;4.36;54.50;99131.53;5050475;28;8876;-78
2023/04/07 01:47:06;;;;;;;;;46.75;42.00;;;;;3.94;55.67;99137.66;5033789;28;9629;-73
2023/04/07 01:49:37;;;;;;;;;53.25;43.00;;;;;4.12;55.19;99129.84;5050392;28;8981;-76
2023/04/07 01:52:08;;;;;;;;;44.75;41.75;;;;;4.19;55.43;99128.13;5050048;28;9065;-75
2023/04/07 01:54:37;;;;;;;;;47.50;43.25;;;;;4.31;54.98;99117.69;5066723;28;8860;-76
2023/04/07 01:57:06;;;;;;;;;44.25;42.25;;;;;4.46;55.06;99118.50;5032600;28;8828;-77
2023/04/07 01:59:36;;;;;;;;;49.50;44.75;;;;;4.62;54.96;99122.81;5046427;28;8861;-77
2023/04/07 02:02:06;;;;;;;;;44.25;38.75;;;;;4.08;55.51;99125.53;5015421;28;8959;-76
2023/04/07 02:04:40;;;;;;;;;50.50;41.25;;;;;4.41;54.86;99120.25;5069535;28;8846;-76
2023/04/07 02:07:14;;;;;;;;;49.50;44.00;;;;;3.65;55.23;99124.69;5021060;28;8845;-76
2023/04/07 02:09:48;;;;;;;;;48.50;42.50;;;;;4.11;55.37;99127.25;5054372;28;8850;-75
2023/04/07 02:12:17;;;;;;;;;47.25;41.00;;;;;4.30;54.90;99118.56;5069933;28;8869;-77
2023/04/07 02:15:10;;;;;;;;;45.50;41.50;;;;;4.43;54.37;99119.38;5054702;28;8921;-76
2023/04/07 02:17:43;;;;;;;;;46.00;42.75;;;;;4.38;54.63;99118.53;5017012;28;9602;-77
2023/04/07 02:20:12;;;;;;;;;48.00;38.50;;;;;4.13;55.57;99118.59;5071605;28;8855;-75
2023/04/07 02:22:43;;;;;;;;;58.00;45.25;;;;;4.25;54.87;99124.66;5049455;28;8887;-76
2023/04/07 02:25:22;;;;;;;;;36.75;33.25;;;;;3.60;55.93;99122.09;5050798;28;8944;-75
2023/04/07 02:27:51;;;;;;;;;39.50;38.25;;;;;3.17;57.03;99128.06;5069413;28;8842;-76
2023/04/07 02:30:21;;;;;;;;;41.25;38.75;;;;;3.39;56.47;99118.56;5086270;28;9017;-77
2023/04/07 02:32:52;;;;;;;;;37.75;36.75;;;;;3.80;55.99;99118.63;5087178;28;8867;-74
2023/04/07 02:35:21;;;;;;;;;44.50;37.25;;;;;3.44;56.09;99125.53;5084126;28;10217;-75
2023/04/07 02:37:50;;;;;;;;;36.25;34.50;;;;;2.20;59.47;99130.25;5075047;28;8840;-78
2023/04/07 02:40:18;;;;;;;;;26.00;25.00;;;;;2.14;60.74;99125.00;5075323;28;8974;-75
2023/04/07 02:42:48;;;;;;;;;45.75;41.50;;;;;2.58;59.47;99121.78;5118661;27;8852;-75
2023/04/07 02:45:16;;;;;;;;;45.50;41.00;;;;;2.41;60.31;99128.63;5035176;28;8863;-77
2023/04/07 02:47:47;;;;;;;;;49.00;44.75;;;;;2.28;60.33;99126.78;5063852;28;8839;-77
2023/04/07 02:50:18;;;;;;;;;49.25;42.50;;;;;1.57;62.47;99126.28;5083668;28;8851;-75
2023/04/07 02:52:47;;;;;;;;;50.25;41.00;;;;;1.19;64.60;99134.56;5045983;28;8882;-75
2023/04/07 02:55:17;;;;;;;;;45.25;43.25;;;;;1.04;65.09;99141.31;5083325;28;8878;-78
2023/04/07 02:57:46;;;;;;;;;49.50;41.50;;;;;1.11;65.02;99139.66;5086528;28;8993;-76
2023/04/07 03:00:41;;;;;;;;;55.75;44.00;;;;;0.81;66.47;99141.03;5045735;28;9603;-77
2023/04/07 03:03:20;;;;;;;;;51.50;45.25;;;;;0.71;67.43;99141.78;4973839;28;8838;-77
2023/04/07 03:06:15;;;;;;;;;52.50;47.25;;;;;0.42;67.71;99144.81;4963252;28;8989;-77
2023/04/07 03:09:10;;;;;;;;;49.75;44.00;;;;;0.43;68.67;99138.81;4862921;29;8883;-75
2023/04/07 03:11:40;;;;;;;;;42.75;37.50;;;;;0.22;68.92;99133.38;4879755;29;8914;-75
2023/04/07 03:14:10;;;;;;;;;50.25;44.50;;;;;0.24;70.17;99140.28;4875324;29;8961;-76
2023/04/07 03:16:46;;;;;;;;;45.25;44.00;;;;;0.35;69.50;99140.44;4878702;29;8897;-76
2023/04/07 03:19:18;;;;;;;;;46.25;42.25;;;;;0.21;70.11;99132.47;4876127;29;8866;-75
2023/04/07 03:21:50;;;;;;;;;53.00;47.75;;;;;-0.06;71.26;99139.84;4862036;29;8875;-77
2023/04/07 03:24:19;;;;;;;;;47.00;41.25;;;;;0.35;70.21;99142.13;4858156;29;8875;-78
2023/04/07 03:26:48;;;;;;;;;57.75;45.25;;;;;0.26;70.38;99141.16;4860433;29;8899;-74
2023/04/07 03:29:25;;;;;;;;;45.25;43.75;;;;;0.17;71.45;99150.50;4879277;29;8865;-76
2023/04/07 03:31:54;;;;;;;;;47.50;44.75;;;;;0.38;70.73;99140.47;4858882;29;8867;-77
2023/04/07 03:34:26;;;;;;;;;52.50;45.75;;;;;0.20;71.49;99153.16;4879623;29;8897;-76
2023/04/07 03:36:58;;;;;;;;;53.50;46.50;;;;;0.06;71.48;99156.38;4875913;29;9022;-77
2023/04/07 03:39:28;;;;;;;;;58.75;45.50;;;;;0.09;72.22;99142.66;4908929;29;8879;-77
2023/04/07 03:42:00;;;;;;;;;53.50;46.75;;;;;-0.12;73.07;99143.19;4914851;29;8883;-77
2023/04/07 03:44:32;;;;;;;;;52.25;45.25;;;;;0.04;72.66;99149.44;4981673;28;8871;-75
2023/04/07 03:47:01;;;;;;;;;48.75;42.25;;;;;0.11;72.53;99148.69;5040927;28;8854;-76
2023/04/07 03:49:32;;;;;;;;;57.00;48.00;;;;;-0.04;73.23;99148.47;5036753;28;8836;-74
2023/04/07 03:52:04;;;;;;;;;38.75;28.75;;;;;-0.03;72.87;99151.09;5065637;28;8914;-75
2023/04/07 03:54:34;;;;;;;;;42.50;41.00;;;;;0.10;72.98;99152.13;5072765;28;8858;-76
2023/04/07 03:57:04;;;;;;;;;63.00;53.50;;;;;0.05;72.98;99153.78;5073610;28;8870;-77
2023/04/07 03:59:37;;;;;;;;;44.50;41.50;;;;;-0.16;73.98;99149.16;5093853;28;8880;-78
2023/04/07 04:02:07;;;;;;;;;47.50;45.50;;;;;-0.25;74.12;99149.00;5102912;28;8911;-76
2023/04/07 04:04:38;;;;;;;;;55.75;47.00;;;;;-0.09;73.94;99150.09;5085317;28;8859;-76
2023/04/07 04:07:09;;;;;;;;;52.25;44.50;;;;;-0.15;74.17;99161.22;5089178;28;8972;-74
2023/04/07 04:09:53;;;;;;;;;42.00;34.50;;;;;0.05;73.25;99153.78;5094806;28;8855;-76
2023/04/07 04:12:22;;;;;;;;;46.75;42.50;;;;;0.07;73.45;99160.69;5079149;28;9513;-78
2023/04/07 04:15:02;;;;;;;;;45.75;39.50;;;;;-0.27;74.35;99163.59;5065094;28;8940;-78
2023/04/07 04:17:32;;;;;;;;;43.00;42.50;;;;;-0.11;74.56;99161.28;5085841;28;8860;-76
2023/04/07 04:20:06;;;;;;;;;51.00;45.25;;;;;-0.14;74.56;99161.25;5037321;28;8995;-77
2023/04/07 04:22:42;;;;;;;;;42.25;37.25;;;;;0.08;73.63;99157.28;5068003;28;8878;-75
2023/04/07 04:25:12;;;;;;;;;59.00;48.50;;;;;0.27;73.21;99161.00;5046201;28;8867;-75
2023/04/07 04:27:46;;;;;;;;;49.75;44.50;;;;;0.14;73.30;99158.19;5081074;28;8860;-76
2023/04/07 04:30:22;;;;;;;;;52.25;46.25;;;;;0.48;72.49;99154.38;5044200;28;8854;-79
2023/04/07 04:32:54;;;;;;;;;59.50;46.00;;;;;0.46;72.41;99167.31;5027633;28;9019;-76
2023/04/07 04:35:36;;;;;;;;;47.00;41.25;;;;;0.32;73.00;99158.47;5060714;28;8842;-77
2023/04/07 04:38:11;;;;;;;;;45.50;37.50;;;;;0.26;72.76;99164.44;5060656;28;8927;-76
2023/04/07 04:40:45;;;;;;;;;60.25;45.75;;;;;0.44;72.60;99163.84;5043666;28;9827;-74
2023/04/07 04:43:16;;;;;;;;;47.00;37.75;;;;;0.19;73.29;99166.91;5026892;28;9666;-76
2023/04/07 04:45:46;;;;;;;;;45.50;44.50;;;;;0.26;73.70;99173.91;5034589;28;8959;-77
2023/04/07 04:48:16;;;;;;;;;59.25;47.00;;;;;0.45;72.68;99159.53;5020592;28;8858;-74
2023/04/07 04:50:47;;;;;;;;;48.00;43.75;;;;;1.13;70.88;99170.75;5004439;28;8943;-78
2023/04/07 04:53:16;;;;;;;;;55.00;46.25;;;;;0.39;72.52;99170.66;5020962;28;8863;-79
2023/04/07 04:55:58;;;;;;;;;50.00;42.50;;;;;0.04;73.98;99177.88;5041509;28;8849;-75
2023/04/07 04:58:41;;;;;;;;;53.50;46.25;;;;;0.25;73.53;99172.16;5042900;28;8838;-75
2023/04/07 05:01:12;;;;;;;;;59.50;52.00;;;;;0.31;72.78;99180.00;5060153;28;9639;-75
2023/04/07 05:03:46;;;;;;;;;53.25;46.00;;;;;0.73;72.34;99180.56;5060740;28;10242;-75
2023/04/07 05:06:26;;;;;;;;;43.25;41.00;;;;;0.49;72.62;99182.00;5068892;28;8846;-75
2023/04/07 05:08:58;;;;;;;;;46.00;44.75;;;;;0.65;71.69;99180.47;5050563;28;8959;-75
2023/04/07 05:11:32;;;;;;;;;54.50;48.50;;;;;0.83;71.50;99180.72;5080728;28;8830;-77
2023/04/07 05:14:01;;;;;;;;;51.25;45.50;;;;;0.76;70.84;99189.25;5047495;28;8878;-75
2023/04/07 05:16:31;;;;;;;;;53.00;46.00;;;;;1.25;70.03;99184.69;5062931;28;8845;-76
2023/04/07 05:19:01;;;;;;;;;55.50;45.00;;;;;1.47;68.56;99184.06;5079221;27;9111;-75
2023/04/07 05:21:32;;;;;;;;;49.50;46.25;;;;;1.16;70.36;99187.19;5122302;27;8840;-76
2023/04/07 05:24:04;;;;;;;;;55.75;48.50;;;;;0.57;71.96;99193.31;5108971;27;8866;-77
2023/04/07 05:26:35;;;;;;;;;52.75;45.75;;;;;0.88;70.98;99201.50;5084165;28;8842;-77
2023/04/07 05:29:05;;;;;;;;;57.50;46.50;;;;;0.96;71.11;99204.19;5088322;28;8873;-78
2023/04/07 05:31:36;;;;;;;;;59.00;50.25;;;;;1.57;69.00;99194.50;5064372;28;8861;-78
2023/04/07 05:34:09;;;;;;;;;58.67;49.33;;;;;1.71;67.57;99191.19;5113719;27;8866;-77
2023/04/07 05:36:46;;;;;;;;;54.00;47.25;;;;;1.66;67.22;99200.66;5077032;28;9702;-77
2023/04/07 05:39:16;;;;;;;;;62.50;49.25;;;;;2.11;66.72;99196.72;5067869;28;8967;-77
2023/04/07 05:41:46;;;;;;;;;54.75;47.25;;;;;1.87;66.57;99199.97;5051161;28;8850;-77
2023/04/07 05:44:16;;;;;;;;;53.25;46.00;;;;;2.16;66.37;99202.78;5071166;28;8866;-76
2023/04/07 05:46:46;;;;;;;;;50.75;45.00;;;;;2.17;65.42;99208.00;5087245;28;8856;-77
2023/04/07 05:49:17;;;;;;;;;54.25;46.75;;;;;1.72;66.35;99208.47;5042938;28;8863;-76
2023/04/07 05:51:54;;;;;;;;;67.75;52.50;;;;;1.14;69.18;99207.00;5070989;28;8843;-77
2023/04/07 05:54:24;;;;;;;;;59.75;49.25;;;;;1.67;67.64;99205.81;5109471;27;8855;-76
2023/04/07 05:56:55;;;;;;;;;58.25;49.75;;;;;1.64;67.84;99214.44;5007286;28;8893;-76
2023/04/07 05:59:25;;;;;;;;;54.50;49.50;;;;;2.02;67.02;99205.28;5086676;28;9634;-76
2023/04/07 06:01:54;;;;;;;;;65.50;49.75;;;;;2.20;65.76;99208.03;5067748;28;8848;-76
2023/04/07 06:04:23;;;;;;;;;55.50;49.75;;;;;1.62;67.64;99210.13;5070276;28;8830;-76
2023/04/07 06:06:54;;;;;;;;;59.75;46.00;;;;;2.04;66.29;99200.97;5067909;28;8858;-76
2023/04/07 06:09:23;;;;;;;;;60.50;51.75;;;;;2.23;65.36;99209.78;5080582;28;8954;-76
2023/04/07 06:11:52;;;;;;;;;57.50;49.25;;;;;1.42;68.10;99209.91;5087537;28;8928;-78
2023/04/07 06:14:21;;;;;;;;;54.75;46.00;;;;;1.73;67.51;99211.09;5086106;28;8859;-75
2023/04/07 06:16:50;;;;;;;;;53.50;46.75;;;;;2.17;66.67;99208.00;5112806;27;8918;-75
2023/04/07 06:19:19;;;;;;;;;56.50;49.00;;;;;1.86;66.65;99206.00;5066997;28;8991;-77
2023/04/07 06:21:48;;;;;;;;;64.00;50.50;;;;;1.86;66.92;99201.69;5075018;28;8872;-74
2023/04/07 06:24:21;;;;;;;;;54.50;42.50;;;;;1.42;68.14;99217.66;5051838;28;8883;-76
2023/04/07 06:26:50;;;;;;;;;53.75;48.50;;;;;1.05;70.02;99220.72;5103287;28;8844;-78
2023/04/07 06:29:21;;;;;;;;;56.25;48.75;;;;;1.13;70.54;99217.34;5086809;28;8871;-75
2023/04/07 06:31:51;;;;;;;;;63.75;51.25;;;;;1.14;70.45;99222.53;5037623;28;8847;-78
2023/04/07 06:34:19;;;;;;;;;56.75;50.25;;;;;0.68;71.98;99223.63;5053220;28;8885;-79
2023/04/07 06:36:49;;;;;;;;;58.50;48.50;;;;;0.39;73.68;99224.09;5085281;28;8894;-78
2023/04/07 06:39:20;;;;;;;;;65.50;55.25;;;;;0.41;73.51;99227.56;5052546;28;8864;-79
2023/04/07 06:41:49;;;;;;;;;57.50;47.75;;;;;-0.09;74.54;99231.06;5083277;28;8868;-79
2023/04/07 06:44:17;;;;;;;;;68.75;53.00;;;;;0.00;75.23;99231.22;5065688;28;9624;-80
2023/04/07 06:46:49;;;;;;;;;66.50;53.00;;;;;-0.15;75.74;99230.97;5099859;27;8920;-80
2023/04/07 06:49:18;;;;;;;;;67.50;52.75;;;;;-0.05;75.64;99235.44;5074197;28;8871;-79
2023/04/07 06:51:47;;;;;;;;;62.75;52.00;;;;;0.07;75.52;99238.22;5092841;28;8893;-79
2023/04/07 06:54:16;;;;;;;;;63.00;48.50;;;;;0.01;75.50;99237.25;5083742;28;8878;-80
2023/04/07 06:56:46;;;;;;;;;65.25;53.00;;;;;-0.04;75.22;99244.06;5074444;28;8855;-79
2023/04/07 06:59:15;;;;;;;;;52.75;48.25;;;;;-0.08;74.92;99243.16;5074950;28;9584;-81
2023/04/07 07:01:45;;;;;;;;;66.75;53.75;;;;;0.27;74.87;99235.09;5060713;28;8854;-82
2023/04/07 07:04:14;;;;;;;;;67.25;55.00;;;;;0.31;74.31;99242.03;5026796;28;8976;-79
2023/04/07 07:06:43;;;;;;;;;65.50;52.75;;;;;0.34;74.23;99247.28;5066962;28;8846;-80
2023/04/07 07:09:12;;;;;;;;;78.00;60.75;;;;;0.30;74.31;99250.66;5068149;28;8889;-80
2023/04/07 07:11:41;;;;;;;;;68.50;55.25;;;;;0.28;74.72;99254.94;5050431;28;8843;-80
2023/04/07 07:14:11;;;;;;;;;74.75;61.00;;;;;0.39;74.79;99260.28;5066451;28;8854;-79
2023/04/07 07:16:40;;;;;;;;;67.00;53.75;;;;;0.47;73.94;99266.44;5083794;28;9682;-80
2023/04/07 07:19:09;;;;;;;;;69.25;54.75;;;;;0.29;73.50;99279.94;5086949;28;8973;-81
2023/04/07 07:21:38;;;;;;;;;64.00;53.00;;;;;0.32;74.21;99269.66;5071096;28;8851;-79
2023/04/07 07:24:07;;;;;;;;;72.00;54.50;;;;;0.39;73.90;99268.03;5079710;28;8874;-81
2023/04/07 07:26:36;;;;;;;;;54.25;42.50;;;;;0.46;73.31;99264.69;5067718;28;8842;-81
2023/04/07 07:29:05;;;;;;;;;77.50;58.25;;;;;0.33;74.47;99261.06;5118651;27;8832;-80
2023/04/07 07:31:35;;;;;;;;;72.00;57.00;;;;;0.46;74.08;99270.75;5067142;28;8862;-81
2023/04/07 07:34:04;;;;;;;;;61.50;48.75;;;;;0.22;73.66;99278.97;5101341;28;8929;-81
2023/04/07 07:36:33;;;;;;;;;73.25;52.50;;;;;0.36;73.15;99274.03;5086183;28;9627;-81
2023/04/07 07:39:02;;;;;;;;;62.00;49.75;;;;;0.64;72.31;99277.03;5088222;28;8890;-80
2023/04/07 07:41:31;;;;;;;;;65.75;54.25;;;;;0.47;72.70;99280.22;5086523;28;8852;-82
2023/04/07 07:44:00;;;;;;;;;69.75;52.75;;;;;0.63;73.53;99276.19;5087121;28;8993;-79
2023/04/07 07:46:29;;;;;;;;;64.50;51.75;;;;;1.27;71.15;99277.06;5074817;28;8878;-79
2023/04/07 07:48:59;;;;;;;;;75.50;58.50;;;;;0.58;71.92;99282.13;5078969;28;8892;-81
2023/04/07 07:51:28;;;;;;;;;71.75;56.50;;;;;0.66;72.47;99280.53;5097607;28;8867;-80
2023/04/07 07:53:57;;;;;;;;;68.50;55.00;;;;;0.56;72.47;99279.50;5032696;28;8858;-80
2023/04/07 07:56:26;;;;;;;;;64.00;51.25;;;;;0.31;73.71;99290.31;5054390;28;8859;-79
2023/04/07 07:58:55;;;;;;;;;69.50;55.75;;;;;0.43;73.60;99287.94;5111063;28;8879;-81
2023/04/07 08:01:26;;;;;;;;;62.75;52.00;;;;;0.53;72.77;99292.38;5066878;28;8818;-80
2023/04/07 08:03:55;;;;;;;;;66.50;55.00;;;;;0.44;73.60;99284.47;5051315;28;8869;-79
2023/04/07 08:06:26;;;;;;;;;64.75;54.00;;;;;0.55;73.73;99290.69;5018117;28;8861;-81
2023/04/07 08:08:54;;;;;;;;;68.00;53.75;;;;;0.52;74.16;99301.00;5084145;28;8869;-81
2023/04/07 08:11:23;;;;;;;;;70.00;53.25;;;;;0.83;72.81;99293.69;5063667;28;8859;-80
2023/04/07 08:13:53;;;;;;;;;67.25;53.75;;;;;0.80;73.21;99301.41;5083932;28;8849;-81
2023/04/07 08:16:22;;;;;;;;;64.50;51.75;;;;;0.59;72.72;99313.16;5067682;28;8895;-79
2023/04/07 08:18:51;;;;;;;;;66.50;52.75;;;;;0.97;72.38;99300.00;5084253;28;8882;-83
2023/04/07 08:21:20;;;;;;;;;51.50;45.00;;;;;0.93;72.24;99310.22;5084858;28;8850;-82
2023/04/07 08:23:50;;;;;;;;;65.75;52.25;;;;;1.06;71.36;99301.81;5084563;28;9015;-81
2023/04/07 08:26:20;;;;;;;;;68.25;54.00;;;;;1.09;71.66;99306.16;5069508;28;8930;-80
2023/04/07 08:28:50;;;;;;;;;62.25;48.75;;;;;0.86;72.73;99301.53;5091926;28;9595;-80
2023/04/07 08:31:19;;;;;;;;;69.75;55.00;;;;;0.95;72.61;99309.41;5072785;28;8849;-81
2023/04/07 08:33:52;;;;;;;;;63.00;53.75;;;;;1.53;71.35;99303.28;5068087;28;8951;-82
2023/04/07 08:36:21;;;;;;;;;69.25;53.75;;;;;1.32;71.77;99304.75;5085891;28;8867;-81
2023/04/07 08:38:51;;;;;;;;;60.25;50.75;;;;;1.77;69.78;99305.28;5076494;28;9688;-82
2023/04/07 08:41:25;;;;;;;;;72.25;54.00;;;;;1.55;71.16;99299.84;5094083;28;8888;-81
2023/04/07 08:43:54;;;;;;;;;61.67;50.33;;;;;1.78;69.82;99305.28;5037328;28;1273868;-82
2023/04/07 08:46:25;;;;;;;;;67.25;52.00;;;;;2.50;68.75;99304.22;5089889;28;8867;-80
2023/04/07 08:48:56;;;;;;;;;53.00;46.00;;;;;2.80;67.04;99304.44;5065639;28;8914;-79
2023/04/07 08:51:30;;;;;;;;;65.00;54.00;;;;;2.57;66.93;99301.69;5085137;28;8854;-79
2023/04/07 08:54:06;;;;;;;;;57.00;48.25;;;;;3.08;66.03;99304.59;5064376;28;8868;-80
2023/04/07 08:56:39;;;;;;;;;64.75;52.50;;;;;2.35;67.34;99315.34;5075401;28;8846;-80
2023/04/07 08:59:10;;;;;;;;;62.00;49.50;;;;;2.69;65.71;99311.28;5078332;28;8847;-80
2023/04/07 09:01:39;;;;;;;;;63.25;48.00;;;;;3.15;65.02;99308.97;5089738;28;8840;-79
2023/04/07 09:04:09;;;;;;;;;68.00;53.75;;;;;3.23;64.13;99308.16;5074757;28;9764;-83
2023/04/07 09:06:39;;;;;;;;;64.25;51.75;;;;;3.21;63.65;99302.94;5087976;28;8888;-79
2023/04/07 09:09:09;;;;;;;;;69.50;53.75;;;;;2.69;66.21;99307.81;5067433;28;9687;-80
2023/04/07 09:11:40;;;;;;;;;58.00;50.50;;;;;2.74;65.92;99313.91;5067797;28;8891;-79
2023/04/07 09:14:09;;;;;;;;;67.25;54.75;;;;;2.86;65.08;99318.31;5050552;28;8875;-81
2023/04/07 09:16:38;;;;;;;;;65.75;50.50;;;;;2.92;64.58;99316.66;5040884;28;8873;-80
2023/04/07 09:19:07;;;;;;;;;51.00;44.50;;;;;3.33;63.79;99321.19;5046451;28;8844;-79
2023/04/07 09:21:54;;;;;;;;;51.75;46.00;;;;;3.26;64.22;99323.75;5050580;28;8859;-82
2023/04/07 09:24:26;;;;;;;;;66.00;53.25;;;;;2.65;65.20;99324.22;5067203;28;8980;-81
2023/04/07 09:27:10;;;;;;;;;63.75;50.25;;;;;3.27;64.40;99320.28;5066925;28;8828;-80
2023/04/07 09:29:42;;;;;;;;;67.75;50.75;;;;;3.06;64.65;99327.09;5067208;28;8894;-81
2023/04/07 09:32:12;;;;;;;;;67.25;55.50;;;;;3.19;64.00;99328.06;5033092;28;8890;-80
2023/04/07 09:34:41;;;;;;;;;64.25;52.50;;;;;3.74;63.50;99317.06;4992481;28;8877;-82
2023/04/07 09:37:22;;;;;;;;;63.25;53.50;;;;;2.94;64.51;99320.13;5088096;28;8842;-80
2023/04/07 09:39:53;;;;;;;;;56.00;50.25;;;;;3.12;64.80;99321.09;5064198;28;9028;-81
2023/04/07 09:42:22;;;;;;;;;65.50;54.00;;;;;3.13;64.27;99320.25;5064563;28;8872;-81
2023/04/07 09:44:51;;;;;;;;;64.25;50.75;;;;;2.83;65.42;99320.91;5051281;28;8875;-81
2023/04/07 09:47:27;;;;;;;;;61.25;49.50;;;;;3.48;63.62;99317.81;5034467;28;8957;-80
2023/04/07 09:49:58;;;;;;;;;63.50;49.75;;;;;3.66;62.51;99316.16;5051119;28;8870;-81
2023/04/07 09:52:51;;;;;;;;;69.25;55.25;;;;;2.75;63.83;99324.31;5053346;28;8903;-79
2023/04/07 09:55:23;;;;;;;;;65.00;51.25;;;;;3.04;63.16;99318.44;5050786;28;8874;-82
2023/04/07 09:57:54;;;;;;;;;59.50;49.25;;;;;3.65;62.34;99319.63;5033796;28;8990;-82
2023/04/07 10:00:23;;;;;;;;;62.00;50.50;;;;;3.81;61.50;99315.34;5051027;28;8955;-84
2023/04/07 10:02:53;;;;;;;;;70.75;51.50;;;;;3.67;60.89;99321.34;5050875;28;8858;-82
2023/04/07 10:05:22;;;;;;;;;67.50;52.50;;;;;2.80;64.48;99329.53;5031743;28;8890;-85
2023/04/07 10:07:51;;;;;;;;;65.50;51.25;;;;;2.86;64.11;99333.88;5089878;28;9831;-82
2023/04/07 10:10:21;;;;;;;;;56.00;46.25;;;;;3.11;63.43;99333.22;5090071;28;8898;-82
2023/04/07 10:12:55;;;;;;;;;67.00;51.50;;;;;2.73;63.99;99332.94;5073591;28;8851;-81
2023/04/07 10:15:24;;;;;;;;;63.50;49.00;;;;;2.16;65.36;99340.22;5070464;28;8888;-82
2023/04/07 10:17:55;;;;;;;;;60.75;51.00;;;;;2.07;66.87;99333.25;5082243;28;9495;-82
2023/04/07 10:20:25;;;;;;;;;52.00;44.50;;;;;2.65;65.64;99347.59;5036962;28;8874;-82
2023/04/07 10:23:02;;;;;;;;;66.00;51.50;;;;;2.65;65.88;99338.06;5037649;28;8903;-82
2023/04/07 10:25:35;;;;;;;;;64.50;51.50;;;;;2.36;66.45;99349.06;5087907;28;8933;-82
2023/04/07 10:28:08;;;;;;;;;61.00;47.00;;;;;1.79;68.66;99342.44;5074291;28;8880;-86
2023/04/07 10:30:37;;;;;;;;;56.00;47.25;;;;;1.99;66.65;99343.53;5066223;28;8958;-82
2023/04/07 10:33:07;;;;;;;;;65.00;49.25;;;;;1.58;68.17;99340.47;5094746;28;8883;-83
2023/04/07 10:36:06;;;;;;;;;64.75;50.00;;;;;1.64;68.76;99345.72;5092026;28;8831;-83
2023/04/07 10:38:35;;;;;;;;;75.25;61.25;;;;;1.67;68.82;99350.06;5064664;28;8850;-80
2023/04/07 10:41:33;;;;;;;;;80.00;61.25;;;;;1.68;68.66;99360.44;5073267;28;8955;-82
2023/04/07 10:44:03;;;;;;;;;82.00;63.75;;;;;1.71;70.09;99351.84;5056385;28;8873;-82
2023/04/07 10:47:02;;;;;;;;;66.75;53.25;;;;;2.45;67.58;99353.47;5089868;28;8924;-83
2023/04/07 10:49:32;;;;;;;;;65.25;52.75;;;;;2.75;66.99;99349.38;5074939;28;8864;-86
2023/04/07 10:52:23;;;;;;;;;66.75;53.25;;;;;2.81;65.09;99346.84;5091934;28;8836;-83
2023/04/07 10:55:29;;;;;;;;;65.25;51.50;;;;;3.39;63.99;99343.72;5091987;28;9929;-83
2023/04/07 10:58:25;;;;;;;;;63.00;51.75;;;;;3.77;63.98;99343.03;4980960;28;9695;-85
2023/04/07 11:01:24;;;;;;;;;65.00;50.25;;;;;3.59;62.43;99339.53;5012712;28;8863;-86
2023/04/07 11:04:00;;;;;;;;;63.25;51.25;;;;;4.15;62.23;99337.97;4950829;28;8885;-82
2023/04/07 11:06:30;;;;;;;;;60.50;50.50;;;;;3.49;62.30;99342.97;4949533;28;8976;-82
2023/04/07 11:08:59;;;;;;;;;59.25;50.25;;;;;3.26;63.31;99349.72;4949858;28;8858;-82
2023/04/07 11:11:40;;;;;;;;;71.25;55.00;;;;;2.79;64.79;99357.22;4949571;28;8904;-83
2023/04/07 11:14:10;;;;;;;;;62.75;50.50;;;;;2.47;66.62;99359.56;4860529;29;8896;-85
2023/04/07 11:16:42;;;;;;;;;61.25;51.25;;;;;2.13;66.57;99359.22;4861280;29;8924;-81
2023/04/07 11:19:11;;;;;;;;;65.75;52.75;;;;;2.23;66.81;99363.63;4888524;29;8877;-82
2023/04/07 11:21:40;;;;;;;;;66.00;52.25;;;;;2.18;67.17;99367.03;4876845;29;8878;-81
2023/04/07 11:24:09;;;;;;;;;58.00;49.00;;;;;2.22;67.19;99363.63;4873135;29;9010;-81
2023/04/07 11:26:40;;;;;;;;;66.75;53.75;;;;;2.11;67.36;99360.94;4895596;29;9017;-83
2023/04/07 11:29:12;;;;;;;;;64.50;52.50;;;;;2.01;67.86;99362.56;4895854;29;8889;-84
2023/04/07 11:31:48;;;;;;;;;66.75;52.00;;;;;2.54;67.25;99353.56;4895113;29;8994;-82
2023/04/07 11:34:17;;;;;;;;;66.50;55.00;;;;;2.83;65.41;99359.84;4932165;28;8900;-83
2023/04/07 11:36:46;;;;;;;;;64.75;50.50;;;;;2.52;65.22;99369.97;4944347;28;8859;-84
2023/04/07 11:39:20;;;;;;;;;72.00;55.50;;;;;2.57;66.58;99368.28;5063051;28;8861;-81
2023/04/07 11:41:50;;;;;;;;;59.75;49.25;;;;;2.31;65.55;99360.25;5088249;28;8914;-82
2023/04/07 11:44:20;;;;;;;;;65.25;49.00;;;;;2.09;65.57;99366.94;5070668;28;8870;-81
2023/04/07 11:46:54;;;;;;;;;57.75;48.25;;;;;2.19;66.71;99369.66;5068254;28;9646;-85
2023/04/07 11:49:24;;;;;;;;;65.50;51.25;;;;;2.39;65.78;99372.47;5065664;28;8840;-84
2023/04/07 11:52:01;;;;;;;;;55.50;48.50;;;;;2.77;64.46;99364.13;5087984;28;8851;-81
2023/04/07 11:54:41;;;;;;;;;65.75;49.00;;;;;2.37;66.09;99368.97;5073205;28;8936;-84